Time;durP1;ratioP1;P1;durP2;ratioP2;P2;SDS_P1;SDS_P2;PMS_P1;PMS_P2;Temp;Humidity;BMP_temperature;BMP_pressure;BME280_temperature;BME280_humidity;BME280_pressure;Samples;Min_cycle;Max_cycle;Signal;HPM_P1;HPM_P2
2021/01/01 00:01:39;;;;;;;128.93;72.57;;;;;;;7.29;61.31;100517.00;4936569;28;124063;-75
2021/01/01 00:04:06;;;;;;;121.65;73.35;;;;;;;7.30;60.97;100521.34;4904836;28;114401;-75
2021/01/01 00:06:35;;;;;;;122.15;72.95;;;;;;;7.31;61.44;100520.44;4905370;28;115011;-75
2021/01/01 00:09:03;;;;;;;118.75;69.72;;;;;;;7.32;61.37;100526.56;4906194;28;123261;-75
2021/01/01 00:11:30;;;;;;;115.18;66.57;;;;;;;7.30;61.27;100523.97;4920691;28;123425;-75
2021/01/01 00:13:57;;;;;;;110.18;61.42;;;;;;;7.31;61.14;100524.84;4911752;28;114365;-75
2021/01/01 00:16:23;;;;;;;106.78;60.20;;;;;;;7.28;61.21;100524.97;4923497;28;114158;-75
2021/01/01 00:18:50;;;;;;;102.47;57.03;;;;;;;7.26;60.98;100526.81;4911756;28;123179;-75
2021/01/01 00:21:17;;;;;;;98.93;56.90;;;;;;;7.23;61.18;100535.66;4917169;28;124142;-75
2021/01/01 00:23:43;;;;;;;98.35;54.45;;;;;;;7.21;61.05;100530.47;4914576;28;112298;-76
2021/01/01 00:26:15;;;;;;;89.35;50.63;;;;;;;7.21;61.11;100530.47;4906513;28;113180;-76
2021/01/01 00:28:46;;;;;;;91.10;48.65;;;;;;;7.21;60.81;100525.19;4907888;28;124055;-76
2021/01/01 00:31:14;;;;;;;80.97;46.45;;;;;;;7.21;61.11;100535.72;4930599;28;124766;-75
2021/01/01 00:33:42;;;;;;;82.55;45.30;;;;;;;7.21;60.97;100535.72;4926567;28;113970;-75
2021/01/01 00:36:09;;;;;;;81.43;44.03;;;;;;;7.20;60.92;100534.00;4907758;28;114837;-75
2021/01/01 00:38:36;;;;;;;78.13;44.05;;;;;;;7.20;60.82;100533.16;4927082;28;123840;-75
2021/01/01 00:41:06;;;;;;;73.18;41.75;;;;;;;7.18;61.09;100535.84;4924947;28;124078;-75
2021/01/01 00:43:33;;;;;;;70.50;42.28;;;;;;;7.17;60.95;100528.84;4928327;28;114276;-75
2021/01/01 00:46:00;;;;;;;74.00;43.53;;;;;;;7.16;60.89;100536.81;4925573;28;113403;-76
2021/01/01 00:48:27;;;;;;;77.05;43.05;;;;;;;7.15;61.03;100535.94;4922407;28;124732;-75
2021/01/01 00:50:53;;;;;;;71.53;42.20;;;;;;;7.15;60.83;100530.66;4924924;28;122640;-76
2021/01/01 00:53:38;;;;;;;77.95;45.75;;;;;;;7.14;60.71;100534.22;4928791;28;114835;-76
2021/01/01 00:56:04;;;;;;;83.05;46.00;;;;;;;7.14;60.90;100531.59;4932735;28;115151;-75
2021/01/01 00:58:31;;;;;;;81.00;45.88;;;;;;;7.13;60.84;100529.88;4942709;28;124619;-77
2021/01/01 01:00:58;;;;;;;83.53;47.13;;;;;;;7.12;60.92;100525.53;4936437;28;123288;-75
2021/01/01 01:03:24;;;;;;;80.95;46.00;;;;;;;7.11;60.50;100544.88;4930240;28;113917;-75
2021/01/01 01:05:51;;;;;;;85.10;47.05;;;;;;;7.09;60.81;100530.03;4914918;28;113059;-75
2021/01/01 01:08:17;;;;;;;90.57;50.83;;;;;;;7.07;60.66;100532.72;4928067;28;124462;-75
2021/01/01 01:10:44;;;;;;;91.03;50.00;;;;;;;7.07;60.79;100535.34;4929955;28;124459;-75
2021/01/01 01:13:11;;;;;;;88.25;50.85;;;;;;;7.06;60.90;100535.41;4920516;28;114365;-75
2021/01/01 01:15:37;;;;;;;90.55;48.92;;;;;;;7.05;60.84;100542.44;4913995;28;113913;-75
2021/01/01 01:18:04;;;;;;;88.80;49.38;;;;;;;7.03;60.67;100541.66;4922040;28;123792;-76
2021/01/01 01:20:31;;;;;;;98.60;53.80;;;;;;;7.02;60.99;100542.53;4890897;28;123689;-75
2021/01/01 01:22:57;;;;;;;104.10;58.78;;;;;;;7.00;60.62;100541.75;4924738;28;115279;-75
2021/01/01 01:25:24;;;;;;;109.25;60.45;;;;;;;6.99;60.51;100550.56;4927860;28;114919;-75
2021/01/01 01:27:50;;;;;;;108.25;61.80;;;;;;;6.97;60.82;100549.78;4920019;28;123869;-75
2021/01/01 01:30:17;;;;;;;128.30;72.80;;;;;;;6.95;60.71;100543.66;4919058;28;124493;-76
2021/01/01 01:32:44;;;;;;;132.10;76.30;;;;;;;6.93;60.76;100546.38;4911064;28;114498;-75
2021/01/01 01:35:10;;;;;;;148.13;84.00;;;;;;;6.93;60.60;100550.75;4920437;28;113912;-76
2021/01/01 01:37:38;;;;;;;155.30;86.68;;;;;;;6.91;60.58;100553.47;4915032;28;123539;-75
2021/01/01 01:40:06;;;;;;;162.95;92.32;;;;;;;6.89;60.72;100554.44;4934004;28;123841;-75
2021/01/01 01:42:33;;;;;;;173.20;96.20;;;;;;;6.87;60.77;100558.88;4914192;28;114358;-77
2021/01/01 01:45:00;;;;;;;177.55;98.55;;;;;;;6.82;60.65;100559.91;4916079;28;114131;-75
2021/01/01 01:47:27;;;;;;;178.18;97.72;;;;;;;6.80;60.60;100561.72;4913984;28;124115;-76
2021/01/01 01:49:54;;;;;;;181.68;98.13;;;;;;;6.77;60.77;100555.72;4925406;28;122960;-76
2021/01/01 01:52:21;;;;;;;169.30;95.35;;;;;;;6.76;60.95;100560.13;4913338;28;114348;-76
2021/01/01 01:54:48;;;;;;;173.88;96.63;;;;;;;6.74;61.03;100555.81;4914151;28;113094;-76
2021/01/01 01:57:15;;;;;;;173.02;96.72;;;;;;;6.72;60.71;100563.75;4920250;28;123785;-75
2021/01/01 01:59:44;;;;;;;183.32;100.85;;;;;;;6.71;60.96;100567.31;4921387;28;124571;-76
2021/01/01 02:02:11;;;;;;;185.55;99.28;;;;;;;6.70;60.99;100565.56;4910719;28;113532;-74
2021/01/01 02:04:37;;;;;;;177.82;97.57;;;;;;;6.69;60.70;100574.41;4923505;28;113966;-76
2021/01/01 02:07:04;;;;;;;163.90;91.95;;;;;;;6.69;61.22;100579.66;4917201;28;124315;-76
2021/01/01 02:09:31;;;;;;;178.68;95.72;;;;;;;6.67;60.79;100576.22;4917389;28;123181;-75
2021/01/01 02:11:57;;;;;;;170.68;95.22;;;;;;;6.67;61.07;100578.84;4926597;28;113769;-76
2021/01/01 02:14:24;;;;;;;172.48;96.70;;;;;;;6.66;60.95;100579.75;4928982;28;114181;-74
2021/01/01 02:16:51;;;;;;;172.02;93.25;;;;;;;6.66;60.81;100574.50;4906006;28;123828;-74
2021/01/01 02:19:17;;;;;;;166.50;92.50;;;;;;;6.67;60.84;100575.34;4912152;28;124004;-75
2021/01/01 02:21:44;;;;;;;166.68;91.75;;;;;;;6.64;61.10;100581.56;4918386;28;114159;-75
2021/01/01 02:24:11;;;;;;;168.68;91.53;;;;;;;6.66;60.98;100589.41;4925374;28;114277;-76
2021/01/01 02:26:38;;;;;;;166.63;91.68;;;;;;;6.63;61.09;100585.97;4902659;28;122179;-75
2021/01/01 02:29:05;;;;;;;173.20;95.13;;;;;;;6.63;60.99;100582.50;4912749;28;123641;-76
2021/01/01 02:31:32;;;;;;;173.18;93.72;;;;;;;6.63;60.95;100590.41;4929441;28;114362;-76
2021/01/01 02:33:59;;;;;;;173.38;95.88;;;;;;;6.63;60.93;100587.75;4910080;28;114367;-76
2021/01/01 02:36:26;;;;;;;161.25;85.80;;;;;;;6.61;61.10;100593.06;4914688;28;124050;-75
2021/01/01 02:38:52;;;;;;;173.60;93.55;;;;;;;6.62;61.13;100593.91;4927956;28;123622;-75
2021/01/01 02:41:19;;;;;;;169.55;93.10;;;;;;;6.62;61.19;100593.91;4901477;28;114234;-76
2021/01/01 02:43:45;;;;;;;175.80;94.28;;;;;;;6.60;60.96;100596.59;4926690;28;113107;-76
2021/01/01 02:46:12;;;;;;;174.20;92.68;;;;;;;6.60;61.04;100590.47;4920863;28;124727;-76
2021/01/01 02:48:38;;;;;;;170.25;91.57;;;;;;;6.59;60.88;100588.75;4930501;28;123002;-76
2021/01/01 02:51:05;;;;;;;166.20;89.65;;;;;;;6.58;61.04;100592.31;4908049;28;113180;-76
2021/01/01 02:53:32;;;;;;;167.25;90.47;;;;;;;6.57;61.01;100585.31;4927151;28;114207;-75
2021/01/01 02:55:58;;;;;;;160.90;86.75;;;;;;;6.57;60.89;100595.84;4921653;28;123358;-75
2021/01/01 02:58:25;;;;;;;166.15;86.50;;;;;;;6.55;61.09;100597.66;4931874;28;123525;-76
2021/01/01 03:00:52;;;;;;;156.35;83.72;;;;;;;6.56;60.98;100588.88;4912126;28;115106;-76
2021/01/01 03:03:18;;;;;;;156.90;84.28;;;;;;;6.54;61.08;100590.69;4916328;28;114851;-76
2021/01/01 03:05:45;;;;;;;153.63;83.20;;;;;;;6.54;61.38;100590.69;4902993;28;123666;-76
2021/01/01 03:08:12;;;;;;;160.80;82.50;;;;;;;6.53;61.10;100588.97;4924580;28;123993;-75
2021/01/01 03:10:39;;;;;;;153.35;83.07;;;;;;;6.52;61.82;100596.00;4919363;28;114599;-76
2021/01/01 03:13:05;;;;;;;160.23;84.20;;;;;;;6.52;60.95;100597.78;4917819;28;113976;-76
2021/01/01 03:15:32;;;;;;;141.95;79.70;;;;;;;6.50;60.91;100599.56;4911980;28;123482;-76
2021/01/01 03:17:58;;;;;;;152.50;81.47;;;;;;;6.48;60.96;100596.13;4902577;28;123632;-76
2021/01/01 03:20:25;;;;;;;151.60;81.45;;;;;;;6.45;61.05;100601.50;4921443;28;116119;-76
2021/01/01 03:22:52;;;;;;;150.48;81.20;;;;;;;6.43;61.02;100599.78;4926463;28;114775;-75
2021/01/01 03:25:18;;;;;;;148.23;82.53;;;;;;;6.42;61.14;100598.06;4916597;28;123443;-76
2021/01/01 03:27:45;;;;;;;154.73;84.50;;;;;;;6.41;60.90;100596.34;4900256;28;121742;-76
2021/01/01 03:30:12;;;;;;;154.10;85.22;;;;;;;6.38;61.11;100601.69;4914824;28;114291;-76
2021/01/01 03:32:39;;;;;;;160.73;84.22;;;;;;;6.38;61.18;100606.94;4925677;28;114060;-75
2021/01/01 03:35:06;;;;;;;148.43;81.90;;;;;;;6.37;61.21;100610.50;4916798;28;124658;-76
2021/01/01 03:37:35;;;;;;;163.35;85.90;;;;;;;6.34;60.86;100605.31;4928016;28;123677;-75
2021/01/01 03:40:04;;;;;;;164.07;88.00;;;;;;;6.32;61.10;100617.66;4927129;28;114153;-73
2021/01/01 03:42:30;;;;;;;159.23;87.63;;;;;;;6.30;61.25;100608.97;4927297;28;114172;-76
2021/01/01 03:44:57;;;;;;;176.50;95.35;;;;;;;6.28;61.30;100605.53;4921913;28;124816;-76
2021/01/01 03:47:23;;;;;;;175.40;95.53;;;;;;;6.27;61.27;100609.03;4906966;28;123146;-76
2021/01/01 03:49:50;;;;;;;176.75;96.25;;;;;;;6.26;61.13;100609.97;4900821;28;113231;-76
2021/01/01 03:52:16;;;;;;;181.13;97.07;;;;;;;6.26;61.34;100612.59;4915536;28;113201;-76
2021/01/01 03:54:43;;;;;;;189.82;99.88;;;;;;;6.26;61.36;100607.34;4930356;28;123632;-76
2021/01/01 03:57:09;;;;;;;194.20;103.88;;;;;;;6.24;61.49;100614.41;4935476;28;123401;-76
2021/01/01 03:59:36;;;;;;;209.52;112.15;;;;;;;6.22;61.07;100610.97;4932510;28;114211;-76
2021/01/01 04:02:03;;;;;;;224.25;115.55;;;;;;;6.20;61.13;100602.28;4916908;28;112585;-76
2021/01/01 04:04:30;;;;;;;219.07;117.10;;;;;;;6.19;61.48;100608.44;4904219;28;122345;-76
2021/01/01 04:06:56;;;;;;;232.80;118.03;;;;;;;6.19;61.59;100611.06;4919213;28;123679;-73
2021/01/01 04:09:23;;;;;;;231.82;118.65;;;;;;;6.19;61.51;100605.81;4928962;28;115198;-75
2021/01/01 04:11:50;;;;;;;233.38;119.95;;;;;;;6.18;61.37;100615.47;4917477;28;114760;-76
2021/01/01 04:14:16;;;;;;;221.30;120.18;;;;;;;6.19;61.45;100608.44;4899589;28;122750;-75
2021/01/01 04:16:44;;;;;;;234.93;120.38;;;;;;;6.19;61.43;100608.44;4920715;28;123819;-75
2021/01/01 04:19:11;;;;;;;233.40;116.38;;;;;;;6.19;61.39;100603.16;4914876;28;113450;-75
2021/01/01 04:21:37;;;;;;;225.38;118.68;;;;;;;6.19;61.46;100616.31;4919251;28;113849;-75
2021/01/01 04:24:04;;;;;;;223.70;118.30;;;;;;;6.19;61.37;100616.31;4930075;28;124571;-75
2021/01/01 04:26:31;;;;;;;233.65;118.43;;;;;;;6.18;61.42;100614.63;4899627;28;123647;-75
2021/01/01 04:28:57;;;;;;;227.85;118.38;;;;;;;6.18;61.68;100617.25;4927949;28;114370;-75
2021/01/01 04:31:24;;;;;;;215.55;117.93;;;;;;;6.16;61.54;100616.41;4901042;28;113335;-75
2021/01/01 04:33:50;;;;;;;227.80;118.55;;;;;;;6.15;61.72;100614.69;4923414;28;123818;-75
2021/01/01 04:36:17;;;;;;;241.63;120.18;;;;;;;6.14;61.69;100612.97;4914073;28;122123;-75
2021/01/01 04:38:43;;;;;;;234.95;119.95;;;;;;;6.15;61.79;100614.69;4906413;28;114306;-75
2021/01/01 04:41:10;;;;;;;230.25;119.10;;;;;;;6.15;61.59;100609.44;4931950;28;114326;-75
2021/01/01 04:43:37;;;;;;;228.10;118.18;;;;;;;6.15;61.66;100614.69;4920409;28;123783;-75
2021/01/01 04:46:04;;;;;;;240.40;119.10;;;;;;;6.16;61.91;100611.16;4909227;28;123789;-76
2021/01/01 04:48:31;;;;;;;216.70;114.20;;;;;;;6.16;61.70;100611.16;4911511;28;113073;-75
2021/01/01 04:50:58;;;;;;;223.02;114.93;;;;;;;6.16;61.66;100611.16;4927463;28;114102;-75
2021/01/01 04:53:25;;;;;;;218.88;114.07;;;;;;;6.15;61.84;100618.19;4927487;28;123815;-75
2021/01/01 04:55:53;;;;;;;216.63;110.53;;;;;;;6.16;62.03;100619.03;4912339;28;122636;-75
2021/01/01 04:58:19;;;;;;;217.18;110.28;;;;;;;6.15;61.95;100614.69;4916167;28;113988;-75
2021/01/01 05:00:46;;;;;;;204.45;107.40;;;;;;;6.16;61.74;100616.41;4927050;28;114290;-75
2021/01/01 05:03:12;;;;;;;210.45;107.90;;;;;;;6.17;61.93;100618.13;4914213;28;123935;-75
2021/01/01 05:05:46;;;;;;;201.80;107.90;;;;;;;6.18;61.84;100614.63;4928232;28;124582;-75
2021/01/01 05:08:13;;;;;;;204.32;106.82;;;;;;;6.19;61.72;100626.84;4917402;28;113883;-75
2021/01/01 05:10:39;;;;;;;206.48;108.40;;;;;;;6.19;61.91;100622.44;4907930;28;113388;-75
2021/01/01 05:13:13;;;;;;;198.90;104.47;;;;;;;6.19;62.03;100613.69;4923456;28;124780;-75
2021/01/01 05:15:42;;;;;;;198.93;102.18;;;;;;;6.18;62.02;100619.88;4931271;28;123987;-75
2021/01/01 05:18:23;;;;;;;186.27;96.43;;;;;;;6.17;61.72;100618.13;4933454;28;114657;-75
2021/01/01 05:20:54;;;;;;;181.70;94.93;;;;;;;6.17;62.11;100618.13;4911611;28;114948;-75
2021/01/01 05:23:25;;;;;;;180.43;94.40;;;;;;;6.17;62.04;100623.41;4931630;28;123732;-75
2021/01/01 05:26:12;;;;;;;182.25;93.40;;;;;;;6.16;61.98;100625.19;4933888;28;123923;-75
2021/01/01 05:28:51;;;;;;;174.05;90.80;;;;;;;6.17;62.22;100623.41;4907396;28;113782;-75
2021/01/01 05:31:23;;;;;;;175.80;89.63;;;;;;;6.16;62.07;100621.66;4930665;28;113894;-75
2021/01/01 05:34:03;;;;;;;170.30;88.05;;;;;;;6.15;62.19;100628.69;4922965;28;123888;-75
2021/01/01 05:36:36;;;;;;;159.02;83.90;;;;;;;6.15;62.16;100630.47;4929468;23;124539;-67
2021/01/01 05:39:19;;;;;;;153.63;80.55;;;;;;;6.16;62.06;100632.19;4914992;28;113344;-67
2021/01/01 05:41:48;;;;;;;145.80;74.40;;;;;;;6.18;62.38;100635.66;4949394;28;115618;-68
2021/01/01 05:44:16;;;;;;;151.80;77.63;;;;;;;6.19;61.95;100637.34;4946988;28;124457;-68
2021/01/01 05:47:05;;;;;;;147.75;74.55;;;;;;;6.19;62.28;100637.34;4941695;28;124722;-68
2021/01/01 05:49:41;;;;;;;137.77;71.20;;;;;;;6.23;62.05;100644.25;4944919;28;114958;-68
2021/01/01 05:52:10;;;;;;;133.18;70.60;;;;;;;6.22;62.04;100643.38;4950650;28;114978;-68
2021/01/01 05:54:41;;;;;;;129.73;66.15;;;;;;;6.24;62.09;100638.09;4929539;28;123051;-69
2021/01/01 05:57:10;;;;;;;124.50;63.25;;;;;;;6.25;61.90;100642.41;4945530;28;123941;-68
2021/01/01 05:59:41;;;;;;;119.90;60.63;;;;;;;6.24;62.00;100651.22;4932081;28;114530;-68
2021/01/01 06:02:10;;;;;;;118.20;59.38;;;;;;;6.24;62.24;100648.59;4944255;28;114037;-68
2021/01/01 06:04:37;;;;;;;113.93;60.30;;;;;;;6.26;62.30;100654.69;4946341;28;123622;-68
2021/01/01 06:07:09;;;;;;;119.97;60.35;;;;;;;6.26;62.05;100654.69;4947251;28;123615;-67
2021/01/01 06:09:37;;;;;;;111.32;58.22;;;;;;;6.28;62.17;100652.00;4945505;28;114268;-67
2021/01/01 06:12:08;;;;;;;116.22;58.38;;;;;;;6.28;62.14;100652.84;4944951;28;114415;-67
2021/01/01 06:14:40;;;;;;;112.18;55.60;;;;;;;6.28;62.06;100652.84;4945461;28;124795;-67
2021/01/01 06:17:09;;;;;;;108.28;56.40;;;;;;;6.30;62.16;100656.31;4948325;28;124069;-67
2021/01/01 06:19:45;;;;;;;101.55;53.20;;;;;;;6.29;62.07;100659.84;4946194;28;114336;-67
2021/01/01 06:22:14;;;;;;;105.43;53.67;;;;;;;6.32;62.03;100659.75;4940258;28;113985;-67
2021/01/01 06:24:49;;;;;;;105.03;52.97;;;;;;;6.32;62.07;100651.84;4932283;28;124508;-66
2021/01/01 06:27:17;;;;;;;105.28;52.08;;;;;;;6.33;61.76;100661.47;4945467;28;124059;-66
2021/01/01 06:29:46;;;;;;;102.25;52.60;;;;;;;6.32;62.16;100662.38;4945274;28;113369;-67
2021/01/01 06:32:13;;;;;;;99.40;52.05;;;;;;;6.33;61.94;100671.13;4951094;28;114112;-68
2021/01/01 06:34:40;;;;;;;103.40;53.60;;;;;;;6.33;61.97;100672.00;4944626;28;124605;-67
2021/01/01 06:37:07;;;;;;;99.88;51.63;;;;;;;6.33;61.97;100677.25;4929553;28;122928;-67
2021/01/01 06:39:39;;;;;;;99.95;51.50;;;;;;;6.33;61.68;100677.25;4930375;28;115658;-68
2021/01/01 06:42:07;;;;;;;104.68;50.92;;;;;;;6.34;62.02;100678.97;4950293;28;115347;-68
2021/01/01 06:44:42;;;;;;;109.97;53.08;;;;;;;6.34;62.00;100678.13;4937225;28;123269;-68
2021/01/01 06:47:10;;;;;;;103.32;52.60;;;;;;;6.32;61.82;100683.41;4946940;28;123587;-69
2021/01/01 06:49:38;;;;;;;102.47;51.03;;;;;;;6.30;61.58;100692.28;4939725;28;114373;-68
2021/01/01 06:52:17;;;;;;;96.78;50.78;;;;;;;6.28;61.70;100689.69;4947037;28;114254;-69
2021/01/01 06:55:01;;;;;;;102.22;53.08;;;;;;;6.27;61.82;100695.84;4947475;28;124750;-68
2021/01/01 06:57:29;;;;;;;94.03;49.83;;;;;;;6.24;61.56;100693.31;4944512;28;123796;-68
2021/01/01 06:59:58;;;;;;;106.63;53.35;;;;;;;6.22;61.56;100690.72;4918366;28;113027;-68
2021/01/01 07:02:31;;;;;;;98.45;51.53;;;;;;;6.21;61.46;100698.66;4948906;28;114080;-68
2021/01/01 07:05:01;;;;;;;105.43;52.42;;;;;;;6.19;61.58;100700.47;4931552;28;122141;-68
2021/01/01 07:07:42;;;;;;;102.45;53.17;;;;;;;6.17;61.73;100707.53;4935894;28;123761;-68
2021/01/01 07:10:14;;;;;;;105.90;56.03;;;;;;;6.14;61.68;100707.63;4934946;28;113989;-68
2021/01/01 07:12:41;;;;;;;109.53;55.15;;;;;;;6.13;61.62;100713.81;4949530;28;113894;-68
2021/01/01 07:15:33;;;;;;;111.95;56.40;;;;;;;6.12;61.49;100714.69;4945463;28;123359;-68
2021/01/01 07:17:59;;;;;;;120.53;59.42;;;;;;;6.09;61.26;100720.06;4944576;28;123718;-68
2021/01/01 07:20:27;;;;;;;126.95;63.28;;;;;;;6.08;61.48;100713.06;4943204;28;114212;-68
2021/01/01 07:22:57;;;;;;;134.93;65.55;;;;;;;6.03;61.66;100711.44;4944505;28;114425;-68
2021/01/01 07:25:38;;;;;;;140.13;66.72;;;;;;;6.02;61.63;100714.94;4933114;28;123006;-68
2021/01/01 07:28:06;;;;;;;132.50;66.45;;;;;;;6.00;61.93;100716.75;4950971;28;124627;-68
2021/01/01 07:30:34;;;;;;;135.20;67.38;;;;;;;5.99;61.66;100716.81;4943903;28;115624;-68
2021/01/01 07:33:02;;;;;;;136.82;69.82;;;;;;;5.97;62.06;100722.13;4929541;28;114842;-68
2021/01/01 07:35:30;;;;;;;144.00;70.15;;;;;;;5.97;61.81;100715.97;4933855;28;122950;-68
2021/01/01 07:37:58;;;;;;;136.13;69.13;;;;;;;5.95;61.80;100718.69;4938833;28;124164;-68
2021/01/01 07:40:25;;;;;;;143.05;70.60;;;;;;;5.95;61.84;100729.19;4937858;28;114726;-68
2021/01/01 07:42:53;;;;;;;140.98;69.30;;;;;;;5.93;61.64;100728.31;4931411;28;114427;-68
2021/01/01 07:45:20;;;;;;;138.98;70.68;;;;;;;5.90;61.82;100731.06;4917940;28;123622;-68
2021/01/01 07:47:48;;;;;;;146.90;72.47;;;;;;;5.88;61.90;100732.84;4931348;28;123194;-68
2021/01/01 07:50:18;;;;;;;138.68;70.43;;;;;;;5.84;61.91;100725.97;4934242;28;112195;-69
2021/01/01 07:52:45;;;;;;;139.70;70.35;;;;;;;5.83;61.80;100734.75;4932130;28;113550;-67
2021/01/01 07:55:20;;;;;;;142.35;69.50;;;;;;;5.81;61.59;100736.56;4947748;28;124465;-67
2021/01/01 07:57:47;;;;;;;145.00;69.97;;;;;;;5.78;61.90;100731.38;4917873;28;123077;-67
2021/01/01 08:00:14;;;;;;;136.65;67.65;;;;;;;5.78;61.72;100741.88;4931708;28;113141;-68
2021/01/01 08:02:41;;;;;;;135.30;65.80;;;;;;;5.76;61.96;100738.44;4943234;28;113859;-67
2021/01/01 08:05:13;;;;;;;135.73;65.25;;;;;;;5.75;61.95;100736.72;4943398;28;124727;-67
2021/01/01 08:07:39;;;;;;;139.20;66.63;;;;;;;5.73;61.57;100749.91;4942702;28;123917;-67
2021/01/01 08:10:07;;;;;;;128.23;63.47;;;;;;;5.71;61.60;100745.56;4924945;28;114464;-67
2021/01/01 08:12:36;;;;;;;132.48;63.53;;;;;;;5.70;62.00;100754.38;4941814;28;113905;-67
2021/01/01 08:15:04;;;;;;;132.02;64.43;;;;;;;5.68;61.86;100745.66;4943897;28;124226;-67
2021/01/01 08:17:31;;;;;;;129.90;62.65;;;;;;;5.68;61.57;100758.81;4915119;28;124257;-67
2021/01/01 08:19:58;;;;;;;134.95;63.42;;;;;;;5.66;61.92;100749.19;4946722;28;115850;-67
2021/01/01 08:22:36;;;;;;;126.28;62.53;;;;;;;5.64;61.79;100751.00;4951280;28;115340;-67
2021/01/01 08:25:03;;;;;;;124.47;59.47;;;;;;;5.63;61.95;100754.53;4913349;28;123366;-67
2021/01/01 08:27:30;;;;;;;121.55;57.45;;;;;;;5.61;61.84;100751.09;4946251;28;123885;-67
2021/01/01 08:30:05;;;;;;;125.45;57.63;;;;;;;5.60;62.25;100765.13;4945006;28;114391;-67
2021/01/01 08:32:34;;;;;;;111.10;55.20;;;;;;;5.60;62.08;100765.13;4949739;28;115392;-67
2021/01/01 08:35:02;;;;;;;113.45;54.72;;;;;;;5.60;61.89;100765.13;4948300;28;123881;-67
2021/01/01 08:37:32;;;;;;;106.60;51.92;;;;;;;5.62;62.13;100762.47;4932108;28;123888;-67
2021/01/01 08:40:05;;;;;;;106.55;52.30;;;;;;;5.60;62.08;100765.13;4950851;28;113447;-67
2021/01/01 08:42:34;;;;;;;106.38;51.15;;;;;;;5.62;62.46;100763.31;4945781;28;114732;-67
2021/01/01 08:45:06;;;;;;;99.43;50.17;;;;;;;5.64;62.32;100772.00;4948006;28;124135;-67
2021/01/01 08:47:41;;;;;;;100.07;48.90;;;;;;;5.68;62.60;100774.56;4948110;28;124109;-67
2021/01/01 08:50:21;;;;;;;101.95;48.28;;;;;;;5.71;62.37;100777.09;4950813;28;114226;-68
2021/01/01 08:52:58;;;;;;;94.60;46.20;;;;;;;5.73;62.68;100777.94;4917762;28;113353;-68
2021/01/01 08:55:25;;;;;;;105.47;48.42;;;;;;;5.76;62.75;100772.59;4931038;28;124064;-67
2021/01/01 08:58:25;;;;;;;100.55;46.70;;;;;;;5.80;62.50;100782.13;4931334;28;122986;-67
2021/01/01 09:01:16;;;;;;;94.50;45.65;;;;;;;5.84;62.69;100781.16;4896916;28;113994;-67
2021/01/01 09:03:43;;;;;;;84.72;43.85;;;;;;;5.86;62.70;100776.72;4943634;28;114150;-67
2021/01/01 09:06:17;;;;;;;85.50;41.65;;;;;;;5.87;62.75;100788.09;4950829;28;123702;-66
2021/01/01 09:08:44;;;;;;;88.65;43.53;;;;;;;5.90;62.79;100783.63;4932615;28;123702;-68
2021/01/01 09:11:21;;;;;;;84.80;41.05;;;;;;;5.90;62.78;100783.63;4930452;28;115339;-68
2021/01/01 09:14:01;;;;;;;77.38;38.97;;;;;;;5.93;62.60;100786.16;4940198;28;115269;-67
2021/01/01 09:16:43;;;;;;;81.50;38.67;;;;;;;5.94;62.58;100782.63;4929389;28;122891;-67
2021/01/01 09:19:10;;;;;;;75.95;38.97;;;;;;;5.97;62.49;100789.59;4944143;28;123385;-68
2021/01/01 09:21:38;;;;;;;74.93;37.97;;;;;;;5.97;62.59;100790.47;4929303;28;113980;-67
2021/01/01 09:24:04;;;;;;;75.32;39.28;;;;;;;5.99;62.50;100799.19;4926284;28;113662;-67
2021/01/01 09:26:31;;;;;;;74.65;37.53;;;;;;;6.00;62.28;100800.88;4944813;28;124538;-67
2021/01/01 09:29:07;;;;;;;71.32;36.95;;;;;;;6.00;62.46;100800.88;4922336;28;123488;-67
2021/01/01 09:31:36;;;;;;;71.88;35.92;;;;;;;6.01;62.34;100802.63;4929978;28;114460;-66
2021/01/01 09:34:05;;;;;;;74.32;36.33;;;;;;;6.01;62.37;100804.41;4942624;28;114344;-66
2021/01/01 09:36:37;;;;;;;65.40;34.78;;;;;;;6.01;62.41;100813.16;4942071;28;124351;-66
2021/01/01 09:39:07;;;;;;;64.55;33.35;;;;;;;6.01;62.53;100807.88;4935582;28;124569;-66
2021/01/01 09:41:38;;;;;;;63.33;33.00;;;;;;;6.01;62.72;100807.88;4942765;28;113336;-68
2021/01/01 09:44:06;;;;;;;63.83;32.75;;;;;;;6.03;62.88;100806.06;4937222;28;114407;-67
2021/01/01 09:46:32;;;;;;;61.38;30.88;;;;;;;6.06;62.84;100809.53;4940171;28;124831;-68
2021/01/01 09:49:00;;;;;;;60.55;30.27;;;;;;;6.09;62.60;100814.72;4920364;28;123811;-67
2021/01/01 09:51:27;;;;;;;59.92;30.00;;;;;;;6.11;62.91;100815.53;4934930;28;114974;-67
2021/01/01 09:53:53;;;;;;;57.38;28.30;;;;;;;6.13;62.66;100817.19;4941383;28;114211;-68
2021/01/01 09:56:20;;;;;;;51.80;27.63;;;;;;;6.16;62.88;100821.50;4942071;28;124696;-67
2021/01/01 09:58:47;;;;;;;53.53;26.80;;;;;;;6.20;62.92;100812.66;4921628;28;121906;-68
2021/01/01 10:01:14;;;;;;;51.92;26.13;;;;;;;6.24;62.95;100819.53;4936392;28;114247;-67
2021/01/01 10:03:40;;;;;;;47.22;24.98;;;;;;;6.28;63.18;100821.19;4943463;28;115870;-68
2021/01/01 10:06:07;;;;;;;45.53;24.25;;;;;;;6.33;63.05;100819.28;4949533;28;124023;-67
2021/01/01 10:08:33;;;;;;;45.88;24.10;;;;;;;6.40;63.38;100825.22;4946774;28;123848;-68
2021/01/01 10:11:00;;;;;;;44.25;23.13;;;;;;;6.46;63.20;100818.94;4949812;28;114819;-68
2021/01/01 10:13:28;;;;;;;47.53;23.15;;;;;;;6.52;63.40;100818.78;4931736;28;113786;-68
2021/01/01 10:15:54;;;;;;;40.58;21.13;;;;;;;6.59;63.59;100825.56;4947408;28;124378;-67
2021/01/01 10:18:21;;;;;;;46.05;22.67;;;;;;;6.67;63.70;100828.84;4949430;28;124041;-68
2021/01/01 10:20:48;;;;;;;40.65;22.63;;;;;;;6.77;63.58;100825.03;4949235;28;115025;-68
2021/01/01 10:23:15;;;;;;;40.78;23.48;;;;;;;6.86;63.50;100823.06;4951275;28;114546;-68
2021/01/01 10:25:41;;;;;;;41.38;24.10;;;;;;;6.96;63.78;100824.50;4948769;28;124755;-68
2021/01/01 10:28:08;;;;;;;46.10;24.13;;;;;;;7.05;63.91;100821.56;4951225;28;123133;-68
2021/01/01 10:30:34;;;;;;;39.22;22.88;;;;;;;7.16;63.91;100831.78;4952532;28;114608;-68
2021/01/01 10:33:01;;;;;;;39.35;22.10;;;;;;;7.25;63.38;100830.63;4954911;28;113777;-68
2021/01/01 10:35:27;;;;;;;34.92;20.35;;;;;;;7.33;63.51;100823.34;4952812;28;124224;-67
2021/01/01 10:37:54;;;;;;;35.03;20.45;;;;;;;7.42;63.30;100825.66;4937246;28;123689;-68
2021/01/01 10:40:20;;;;;;;29.02;16.38;;;;;;;7.50;63.25;100825.44;4937824;28;114329;-68
2021/01/01 10:42:47;;;;;;;26.20;15.48;;;;;;;7.58;63.46;100826.91;4952708;28;114256;-68
2021/01/01 10:45:27;;;;;;;24.55;14.07;;;;;;;7.68;62.83;100829.22;4950978;28;124108;-68
2021/01/01 10:47:54;;;;;;;28.17;15.23;;;;;;;7.73;63.21;100822.91;4934392;28;123935;-68
2021/01/01 10:50:20;;;;;;;22.75;14.07;;;;;;;7.81;63.20;100825.28;4954373;28;115345;-68
2021/01/01 10:52:47;;;;;;;22.83;13.32;;;;;;;7.88;63.14;100826.78;4937208;28;114926;-68
2021/01/01 10:55:14;;;;;;;26.73;13.27;;;;;;;7.95;63.30;100817.75;4936028;28;124054;-68
2021/01/01 10:57:40;;;;;;;21.77;13.40;;;;;;;8.03;62.78;100821.91;4954668;28;123791;-68
2021/01/01 11:00:07;;;;;;;22.55;13.25;;;;;;;8.10;62.96;100818.13;4954340;28;114350;-68
2021/01/01 11:02:34;;;;;;;22.17;13.32;;;;;;;8.16;62.75;100815.28;4937430;28;113690;-67
2021/01/01 11:05:01;;;;;;;23.90;13.15;;;;;;;8.23;62.63;100814.16;4953701;28;124478;-67
2021/01/01 11:07:28;;;;;;;21.70;12.85;;;;;;;8.30;62.91;100813.00;4954186;28;123905;-67
2021/01/01 11:09:54;;;;;;;20.80;12.93;;;;;;;8.38;63.13;100805.69;4951228;28;114502;-67